sensor_id;sensor_type;location;lat;lon;timestamp;pressure;altitude;pressure_sealevel;temperature;humidity
75221;BME280;63802;53.232;6.570;2023-07-28T00:01:08;100399.84;;;17.32;100.00
75221;BME280;63802;53.232;6.570;2023-07-28T00:03:34;100401.44;;;17.30;100.00
75221;BME280;63802;53.232;6.570;2023-07-28T00:06:03;100407.28;;;17.35;100.00
75221;BME280;63802;53.232;6.570;2023-07-28T00:08:28;100401.38;;;17.37;100.00
75221;BME280;63802;53.232;6.570;2023-07-28T00:10:54;100372.91;;;17.17;100.00
75221;BME280;63802;53.232;6.570;2023-07-28T00:13:19;100390.91;;;17.25;100.00
75221;BME280;63802;53.232;6.570;2023-07-28T00:15:44;100403.38;;;17.33;100.00
75221;BME280;63802;53.232;6.570;2023-07-28T00:18:10;100393.13;;;17.33;100.00
75221;BME280;63802;53.232;6.570;2023-07-28T00:20:35;100406.44;;;17.38;100.00
75221;BME280;63802;53.232;6.570;2023-07-28T00:23:00;100397.84;;;17.33;100.00
75221;BME280;63802;53.232;6.570;2023-07-28T00:25:26;100396.25;;;17.35;100.00
75221;BME280;63802;53.232;6.570;2023-07-28T00:27:51;100395.47;;;17.35;100.00
75221;BME280;63802;53.232;6.570;2023-07-28T00:30:16;100394.69;;;17.34;100.00
75221;BME280;63802;53.232;6.570;2023-07-28T00:32:42;100397.81;;;17.36;100.00
75221;BME280;63802;53.232;6.570;2023-07-28T00:35:07;100398.66;;;17.33;100.00
75221;BME280;63802;53.232;6.570;2023-07-28T00:37:33;100394.31;;;17.32;100.00
75221;BME280;63802;53.232;6.570;2023-07-28T00:39:58;100397.50;;;17.31;100.00
75221;BME280;63802;53.232;6.570;2023-07-28T00:42:24;100401.72;;;17.39;100.00
75221;BME280;63802;53.232;6.570;2023-07-28T00:44:49;100398.59;;;17.37;100.00
75221;BME280;63802;53.232;6.570;2023-07-28T00:47:15;100388.34;;;17.37;100.00
75221;BME280;63802;53.232;6.570;2023-07-28T00:49:40;100400.16;;;17.38;100.00
75221;BME280;63802;53.232;6.570;2023-07-28T00:52:09;100394.69;;;17.34;100.00
75221;BME280;63802;53.232;6.570;2023-07-28T00:54:35;100393.91;;;17.34;100.00
75221;BME280;63802;53.232;6.570;2023-07-28T00:57:01;100407.63;;;17.37;100.00
75221;BME280;63802;53.232;6.570;2023-07-28T00:59:29;100377.53;;;17.23;100.00
75221;BME280;63802;53.232;6.570;2023-07-28T01:01:54;100392.41;;;17.29;100.00
75221;BME280;63802;53.232;6.570;2023-07-28T01:04:19;100401.75;;;17.35;100.00
75221;BME280;63802;53.232;6.570;2023-07-28T01:07:01;100400.16;;;17.38;100.00
75221;BME280;63802;53.232;6.570;2023-07-28T01:09:53;100401.38;;;17.37;100.00
75221;BME280;63802;53.232;6.570;2023-07-28T01:12:24;100404.88;;;17.37;100.00
75221;BME280;63802;53.232;6.570;2023-07-28T01:14:49;100404.13;;;17.37;100.00
75221;BME280;63802;53.232;6.570;2023-07-28T01:17:15;100404.88;;;17.37;100.00
75221;BME280;63802;53.232;6.570;2023-07-28T01:19:40;100400.56;;;17.36;100.00
75221;BME280;63802;53.232;6.570;2023-07-28T01:22:39;100405.66;;;17.38;100.00
75221;BME280;63802;53.232;6.570;2023-07-28T01:25:38;100404.88;;;17.37;100.00
75221;BME280;63802;53.232;6.570;2023-07-28T01:28:04;100401.75;;;17.35;100.00
75221;BME280;63802;53.232;6.570;2023-07-28T01:30:31;100404.94;;;17.34;100.00
75221;BME280;63802;53.232;6.570;2023-07-28T01:32:57;100396.69;;;17.34;100.00
75221;BME280;63802;53.232;6.570;2023-07-28T01:35:24;100402.59;;;17.32;100.00
75221;BME280;63802;53.232;6.570;2023-07-28T01:37:49;100399.00;;;17.35;100.00
75221;BME280;63802;53.232;6.570;2023-07-28T01:40:18;100408.06;;;17.36;100.00
75221;BME280;63802;53.232;6.570;2023-07-28T01:42:44;100404.53;;;17.35;100.00
75221;BME280;63802;53.232;6.570;2023-07-28T01:45:09;100404.53;;;17.35;100.00
75221;BME280;63802;53.232;6.570;2023-07-28T01:47:35;100397.47;;;17.34;100.00
75221;BME280;63802;53.232;6.570;2023-07-28T01:50:00;100389.22;;;17.31;100.00
75221;BME280;63802;53.232;6.570;2023-07-28T01:52:28;100402.19;;;17.34;100.00
75221;BME280;63802;53.232;6.570;2023-07-28T01:54:54;100398.59;;;17.37;100.00
75221;BME280;63802;53.232;6.570;2023-07-28T01:57:19;100384.63;;;17.24;100.00
75221;BME280;63802;53.232;6.570;2023-07-28T01:59:44;100399.00;;;17.35;100.00
75221;BME280;63802;53.232;6.570;2023-07-28T02:02:10;100402.56;;;17.36;100.00
75221;BME280;63802;53.232;6.570;2023-07-28T02:04:35;100404.53;;;17.35;100.00
75221;BME280;63802;53.232;6.570;2023-07-28T02:07:01;100376.00;;;17.22;100.00
75221;BME280;63802;53.232;6.570;2023-07-28T02:09:26;100387.72;;;17.26;100.00
75221;BME280;63802;53.232;6.570;2023-07-28T02:11:52;100408.03;;;17.39;100.00
75221;BME280;63802;53.232;6.570;2023-07-28T02:14:20;100392.41;;;17.29;100.00
75221;BME280;63802;53.232;6.570;2023-07-28T02:16:46;100397.06;;;17.32;100.00
75221;BME280;63802;53.232;6.570;2023-07-28T02:19:14;100409.22;;;17.38;100.00
75221;BME280;63802;53.232;6.570;2023-07-28T02:21:39;100404.16;;;17.33;100.00
75221;BME280;63802;53.232;6.570;2023-07-28T02:24:05;100411.63;;;17.36;100.00
75221;BME280;63802;53.232;6.570;2023-07-28T02:26:30;100410.50;;;17.30;100.00
75221;BME280;63802;53.232;6.570;2023-07-28T02:28:56;100406.91;;;17.33;100.00
75221;BME280;63802;53.232;6.570;2023-07-28T02:31:21;100409.69;;;17.33;100.00
75221;BME280;63802;53.232;6.570;2023-07-28T02:33:47;100414.38;;;17.36;100.00
75221;BME280;63802;53.232;6.570;2023-07-28T02:36:12;100418.31;;;17.35;100.00
75221;BME280;63802;53.232;6.570;2023-07-28T02:38:37;100412.78;;;17.35;100.00
75221;BME280;63802;53.232;6.570;2023-07-28T02:41:03;100410.81;;;17.36;100.00
75221;BME280;63802;53.232;6.570;2023-07-28T02:43:29;100390.25;;;17.17;100.00
75221;BME280;63802;53.232;6.570;2023-07-28T02:45:59;100414.78;;;17.35;100.00
75221;BME280;63802;53.232;6.570;2023-07-28T02:48:46;100405.00;;;17.30;100.00
75221;BME280;63802;53.232;6.570;2023-07-28T02:51:10;100381.66;;;17.12;100.00
75221;BME280;63802;53.232;6.570;2023-07-28T02:53:36;100420.72;;;17.33;100.00
75221;BME280;63802;53.232;6.570;2023-07-28T02:56:01;100420.72;;;17.33;100.00
75221;BME280;63802;53.232;6.570;2023-07-28T02:58:27;100420.75;;;17.30;100.00
75221;BME280;63802;53.232;6.570;2023-07-28T03:00:52;100430.91;;;17.36;100.00
75221;BME280;63802;53.232;6.570;2023-07-28T03:03:17;100416.88;;;17.27;100.00
75221;BME280;63802;53.232;6.570;2023-07-28T03:05:43;100421.91;;;17.32;100.00
75221;BME280;63802;53.232;6.570;2023-07-28T03:08:08;100431.38;;;17.31;100.00
75221;BME280;63802;53.232;6.570;2023-07-28T03:10:34;100432.53;;;17.34;100.00
75221;BME280;63802;53.232;6.570;2023-07-28T03:12:59;100433.38;;;17.31;100.00
75221;BME280;63802;53.232;6.570;2023-07-28T03:15:24;100431.75;;;17.33;100.00
75221;BME280;63802;53.232;6.570;2023-07-28T03:17:50;100423.94;;;17.28;100.00
75221;BME280;63802;53.232;6.570;2023-07-28T03:20:16;100436.47;;;17.33;100.00
75221;BME280;63802;53.232;6.570;2023-07-28T03:22:42;100438.44;;;17.32;100.00
75221;BME280;63802;53.232;6.570;2023-07-28T03:25:08;100426.28;;;17.30;100.00
75221;BME280;63802;53.232;6.570;2023-07-28T03:27:34;100444.41;;;17.31;100.00
75221;BME280;63802;53.232;6.570;2023-07-28T03:30:00;100434.19;;;17.28;100.00
75221;BME280;63802;53.232;6.570;2023-07-28T03:32:25;100435.09;;;17.21;100.00
75221;BME280;63802;53.232;6.570;2023-07-28T03:34:51;100437.38;;;17.26;100.00
75221;BME280;63802;53.232;6.570;2023-07-28T03:37:16;100443.31;;;17.25;100.00
75221;BME280;63802;53.232;6.570;2023-07-28T03:39:41;100437.00;;;17.24;100.00
75221;BME280;63802;53.232;6.570;2023-07-28T03:42:07;100433.16;;;17.18;100.00
75221;BME280;63802;53.232;6.570;2023-07-28T03:44:33;100451.09;;;17.30;100.00
75221;BME280;63802;53.232;6.570;2023-07-28T03:47:02;100435.16;;;17.18;100.00
75221;BME280;63802;53.232;6.570;2023-07-28T03:49:27;100441.44;;;17.18;100.00
75221;BME280;63802;53.232;6.570;2023-07-28T03:51:53;100456.59;;;17.30;100.00
75221;BME280;63802;53.232;6.570;2023-07-28T03:54:18;100453.84;;;17.30;100.00
75221;BME280;63802;53.232;6.570;2023-07-28T03:56:44;100456.59;;;17.30;100.00
75221;BME280;63802;53.232;6.570;2023-07-28T03:59:09;100450.81;;;17.24;100.00
75221;BME280;63802;53.232;6.570;2023-07-28T04:01:34;100462.50;;;17.32;100.00
75221;BME280;63802;53.232;6.570;2023-07-28T04:04:03;100451.88;;;17.30;100.00
75221;BME280;63802;53.232;6.570;2023-07-28T04:06:43;100457.75;;;17.32;100.00
75221;BME280;63802;53.232;6.570;2023-07-28T04:09:11;100466.03;;;17.32;100.00
75221;BME280;63802;53.232;6.570;2023-07-28T04:11:37;100463.28;;;17.32;100.00
75221;BME280;63802;53.232;6.570;2023-07-28T04:14:04;100470.41;;;17.30;100.00
75221;BME280;63802;53.232;6.570;2023-07-28T04:16:29;100458.63;;;17.29;100.00
75221;BME280;63802;53.232;6.570;2023-07-28T04:18:55;100453.09;;;17.29;100.00
75221;BME280;63802;53.232;6.570;2023-07-28T04:21:20;100459.34;;;17.33;100.00
75221;BME280;63802;53.232;6.570;2023-07-28T04:23:45;100469.56;;;17.33;100.00
75221;BME280;63802;53.232;6.570;2023-07-28T04:26:11;100470.72;;;17.35;100.00
75221;BME280;63802;53.232;6.570;2023-07-28T04:28:36;100469.53;;;17.36;100.00
75221;BME280;63802;53.232;6.570;2023-07-28T04:31:02;100467.59;;;17.33;100.00
75221;BME280;63802;53.232;6.570;2023-07-28T04:33:28;100472.75;;;17.31;100.00
75221;BME280;63802;53.232;6.570;2023-07-28T04:35:53;100474.28;;;17.36;100.00
75221;BME280;63802;53.232;6.570;2023-07-28T04:38:18;100484.47;;;17.39;100.00
75221;BME280;63802;53.232;6.570;2023-07-28T04:40:44;100487.63;;;17.37;100.00
75221;BME280;63802;53.232;6.570;2023-07-28T04:43:10;100484.50;;;17.35;100.00
75221;BME280;63802;53.232;6.570;2023-07-28T04:45:36;100478.28;;;17.31;100.00
75221;BME280;63802;53.232;6.570;2023-07-28T04:48:01;100482.97;;;17.34;100.00
75221;BME280;63802;53.232;6.570;2023-07-28T04:50:28;100501.44;;;17.37;100.00
75221;BME280;63802;53.232;6.570;2023-07-28T04:52:54;100486.88;;;17.37;100.00
75221;BME280;63802;53.232;6.570;2023-07-28T04:55:19;100494.66;;;17.42;100.00
75221;BME280;63802;53.232;6.570;2023-07-28T04:57:45;100493.84;;;17.45;100.00
75221;BME280;63802;53.232;6.570;2023-07-28T05:00:10;100501.28;;;17.48;100.00
75221;BME280;63802;53.232;6.570;2023-07-28T05:02:38;100499.31;;;17.49;100.00
75221;BME280;63802;53.232;6.570;2023-07-28T05:05:04;100505.63;;;17.49;100.00
75221;BME280;63802;53.232;6.570;2023-07-28T05:07:33;100499.31;;;17.49;100.00
75221;BME280;63802;53.232;6.570;2023-07-28T05:09:58;100501.72;;;17.47;100.00
75221;BME280;63802;53.232;6.570;2023-07-28T05:12:23;100506.47;;;17.42;100.00
75221;BME280;63802;53.232;6.570;2023-07-28T05:14:49;100496.69;;;17.38;100.00
75221;BME280;63802;53.232;6.570;2023-07-28T05:17:14;100503.34;;;17.40;100.00
75221;BME280;63802;53.232;6.570;2023-07-28T05:19:40;100500.97;;;17.42;100.00
75221;BME280;63802;53.232;6.570;2023-07-28T05:22:08;100500.97;;;17.42;100.00
75221;BME280;63802;53.232;6.570;2023-07-28T05:24:34;100489.22;;;17.38;100.00
75221;BME280;63802;53.232;6.570;2023-07-28T05:26:59;100500.97;;;17.42;100.00
75221;BME280;63802;53.232;6.570;2023-07-28T05:29:25;100502.91;;;17.46;100.00
75221;BME280;63802;53.232;6.570;2023-07-28T05:31:50;100495.44;;;17.42;100.00
75221;BME280;63802;53.232;6.570;2023-07-28T05:34:16;100503.25;;;17.48;100.00
75221;BME280;63802;53.232;6.570;2023-07-28T05:36:42;100498.94;;;17.47;100.00
75221;BME280;63802;53.232;6.570;2023-07-28T05:39:08;100500.09;;;17.49;100.00
75221;BME280;63802;53.232;6.570;2023-07-28T05:41:33;100504.94;;;17.41;100.00
75221;BME280;63802;53.232;6.570;2023-07-28T05:43:59;100515.88;;;17.49;100.00
75221;BME280;63802;53.232;6.570;2023-07-28T05:46:24;100511.97;;;17.46;100.00
75221;BME280;63802;53.232;6.570;2023-07-28T05:48:50;100508.41;;;17.46;100.00
75221;BME280;63802;53.232;6.570;2023-07-28T05:51:16;100518.94;;;17.54;100.00
75221;BME280;63802;53.232;6.570;2023-07-28T05:53:41;100528.38;;;17.57;100.00
75221;BME280;63802;53.232;6.570;2023-07-28T05:56:07;100519.69;;;17.58;100.00
75221;BME280;63802;53.232;6.570;2023-07-28T05:58:33;100526.00;;;17.59;100.00
75221;BME280;63802;53.232;6.570;2023-07-28T06:00:58;100526.34;;;17.61;100.00
75221;BME280;63802;53.232;6.570;2023-07-28T06:03:24;100521.66;;;17.58;100.00
75221;BME280;63802;53.232;6.570;2023-07-28T06:05:50;100529.13;;;17.61;100.00
75221;BME280;63802;53.232;6.570;2023-07-28T06:08:15;100536.19;;;17.62;100.00
75221;BME280;63802;53.232;6.570;2023-07-28T06:10:41;100521.25;;;17.59;100.00
75221;BME280;63802;53.232;6.570;2023-07-28T06:13:06;100514.06;;;17.65;100.00
75221;BME280;63802;53.232;6.570;2023-07-28T06:15:32;100543.78;;;17.81;100.00
75221;BME280;63802;53.232;6.570;2023-07-28T06:18:00;100535.81;;;17.86;100.00
75221;BME280;63802;53.232;6.570;2023-07-28T06:20:25;100547.63;;;17.87;100.00
75221;BME280;63802;53.232;6.570;2023-07-28T06:22:51;100542.13;;;17.87;100.00
75221;BME280;63802;53.232;6.570;2023-07-28T06:25:16;100533.38;;;17.92;100.00
75221;BME280;63802;53.232;6.570;2023-07-28T06:27:42;100551.72;;;18.02;100.00
75221;BME280;63802;53.232;6.570;2023-07-28T06:30:08;100553.94;;;18.11;100.00
75221;BME280;63802;53.232;6.570;2023-07-28T06:32:34;100556.63;;;18.14;100.00
75221;BME280;63802;53.232;6.570;2023-07-28T06:34:59;100565.31;;;18.16;100.00
75221;BME280;63802;53.232;6.570;2023-07-28T06:37:25;100560.19;;;18.15;100.00
75221;BME280;63802;53.232;6.570;2023-07-28T06:39:50;100566.94;;;18.14;100.00
75221;BME280;63802;53.232;6.570;2023-07-28T06:42:16;100543.06;;;18.00;100.00
75221;BME280;63802;53.232;6.570;2023-07-28T06:44:46;100566.81;;;18.21;100.00
75221;BME280;63802;53.232;6.570;2023-07-28T06:47:15;100578.88;;;18.30;100.00
75221;BME280;63802;53.232;6.570;2023-07-28T06:49:41;100570.88;;;18.13;100.00
75221;BME280;63802;53.232;6.570;2023-07-28T06:52:06;100588.13;;;18.20;100.00
75221;BME280;63802;53.232;6.570;2023-07-28T06:54:32;100596.66;;;18.29;100.00
75221;BME280;63802;53.232;6.570;2023-07-28T06:56:58;100601.56;;;18.41;100.00
75221;BME280;63802;53.232;6.570;2023-07-28T06:59:24;100595.53;;;18.50;100.00
75221;BME280;63802;53.232;6.570;2023-07-28T07:01:50;100600.28;;;18.49;100.00
75221;BME280;63802;53.232;6.570;2023-07-28T07:04:17;100585.25;;;18.50;100.00
75221;BME280;63802;53.232;6.570;2023-07-28T07:06:42;100603.97;;;18.62;100.00
75221;BME280;63802;53.232;6.570;2023-07-28T07:09:07;100613.25;;;18.76;100.00
75221;BME280;63802;53.232;6.570;2023-07-28T07:11:33;100616.06;;;18.72;100.00
75221;BME280;63802;53.232;6.570;2023-07-28T07:13:59;100598.53;;;18.59;100.00
75221;BME280;63802;53.232;6.570;2023-07-28T07:16:24;100621.19;;;18.73;100.00
75221;BME280;63802;53.232;6.570;2023-07-28T07:18:53;100630.19;;;18.78;100.00
75221;BME280;63802;53.232;6.570;2023-07-28T07:21:18;100637.38;;;18.71;100.00
75221;BME280;63802;53.232;6.570;2023-07-28T07:23:43;100642.69;;;18.62;100.00
75221;BME280;63802;53.232;6.570;2023-07-28T07:26:09;100639.09;;;18.65;100.00
75221;BME280;63802;53.232;6.570;2023-07-28T07:28:34;100627.66;;;18.63;100.00
75221;BME280;63802;53.232;6.570;2023-07-28T07:31:01;100633.78;;;18.74;100.00
75221;BME280;63802;53.232;6.570;2023-07-28T07:33:26;100641.50;;;18.63;100.00
75221;BME280;63802;53.232;6.570;2023-07-28T07:35:53;100650.84;;;18.69;100.00
75221;BME280;63802;53.232;6.570;2023-07-28T07:38:18;100644.72;;;18.82;100.00
75221;BME280;63802;53.232;6.570;2023-07-28T07:40:47;100646.84;;;18.94;100.00
75221;BME280;63802;53.232;6.570;2023-07-28T07:43:13;100650.44;;;19.14;100.00
75221;BME280;63802;53.232;6.570;2023-07-28T07:45:44;100662.22;;;19.18;100.00
75221;BME280;63802;53.232;6.570;2023-07-28T07:48:12;100660.13;;;19.22;100.00
75221;BME280;63802;53.232;6.570;2023-07-28T07:50:38;100635.66;;;19.01;100.00
75221;BME280;63802;53.232;6.570;2023-07-28T07:53:04;100663.78;;;19.19;100.00
75221;BME280;63802;53.232;6.570;2023-07-28T07:55:29;100661.84;;;19.16;100.00
75221;BME280;63802;53.232;6.570;2023-07-28T07:57:57;100654.84;;;19.31;100.00
75221;BME280;63802;53.232;6.570;2023-07-28T08:00:22;100671.59;;;19.44;100.00
75221;BME280;63802;53.232;6.570;2023-07-28T08:02:49;100672.81;;;19.43;100.00
75221;BME280;63802;53.232;6.570;2023-07-28T08:05:15;100672.69;;;19.50;100.00
75221;BME280;63802;53.232;6.570;2023-07-28T08:07:40;100666.94;;;19.41;100.00
75221;BME280;63802;53.232;6.570;2023-07-28T08:10:06;100672.59;;;19.53;100.00
75221;BME280;63802;53.232;6.570;2023-07-28T08:12:32;100674.31;;;19.47;100.00
75221;BME280;63802;53.232;6.570;2023-07-28T08:14:57;100673.56;;;19.82;100.00
75221;BME280;63802;53.232;6.570;2023-07-28T08:17:23;100661.84;;;20.11;100.00
75221;BME280;63802;53.232;6.570;2023-07-28T08:19:48;100674.13;;;20.10;100.00
75221;BME280;63802;53.232;6.570;2023-07-28T08:22:14;100662.78;;;19.68;100.00
75221;BME280;63802;53.232;6.570;2023-07-28T08:24:40;100660.81;;;19.49;100.00
75221;BME280;63802;53.232;6.570;2023-07-28T08:27:06;100641.41;;;19.29;100.00
75221;BME280;63802;53.232;6.570;2023-07-28T08:29:32;100657.19;;;19.32;100.00
75221;BME280;63802;53.232;6.570;2023-07-28T08:31:57;100648.66;;;19.23;100.00
75221;BME280;63802;53.232;6.570;2023-07-28T08:34:23;100672.03;;;19.42;100.00
75221;BME280;63802;53.232;6.570;2023-07-28T08:36:48;100659.38;;;19.61;100.00
75221;BME280;63802;53.232;6.570;2023-07-28T08:39:14;100695.28;;;20.20;100.00
75221;BME280;63802;53.232;6.570;2023-07-28T08:41:40;100686.50;;;20.41;100.00
75221;BME280;63802;53.232;6.570;2023-07-28T08:44:07;100676.59;;;20.40;100.00
75221;BME280;63802;53.232;6.570;2023-07-28T08:46:32;100701.13;;;20.57;100.00
75221;BME280;63802;53.232;6.570;2023-07-28T08:48:59;100699.31;;;20.51;100.00
75221;BME280;63802;53.232;6.570;2023-07-28T08:51:25;100698.94;;;20.33;100.00
75221;BME280;63802;53.232;6.570;2023-07-28T08:53:51;100705.25;;;20.17;100.00
75221;BME280;63802;53.232;6.570;2023-07-28T08:56:16;100697.00;;;20.14;100.00
75221;BME280;63802;53.232;6.570;2023-07-28T08:58:41;100713.25;;;20.31;100.00
75221;BME280;63802;53.232;6.570;2023-07-28T09:01:07;100697.22;;;20.23;100.00
75221;BME280;63802;53.232;6.570;2023-07-28T09:03:32;100706.56;;;20.29;100.00
75221;BME280;63802;53.232;6.570;2023-07-28T09:06:02;100712.97;;;20.26;100.00
75221;BME280;63802;53.232;6.570;2023-07-28T09:08:30;100701.53;;;20.24;100.00
75221;BME280;63802;53.232;6.570;2023-07-28T09:11:01;100700.34;;;20.25;100.00
75221;BME280;63802;53.232;6.570;2023-07-28T09:13:35;100711.44;;;20.25;100.00
75221;BME280;63802;53.232;6.570;2023-07-28T09:16:01;100713.63;;;20.14;100.00
75221;BME280;63802;53.232;6.570;2023-07-28T09:18:28;100714.56;;;20.27;100.00
75221;BME280;63802;53.232;6.570;2023-07-28T09:20:53;100724.41;;;20.28;100.00
75221;BME280;63802;53.232;6.570;2023-07-28T09:23:28;100715.59;;;20.13;100.00
75221;BME280;63802;53.232;6.570;2023-07-28T09:25:58;100719.50;;;20.16;100.00
75221;BME280;63802;53.232;6.570;2023-07-28T09:28:36;100716.31;;;20.37;100.00
75221;BME280;63802;53.232;6.570;2023-07-28T09:31:04;100719.41;;;20.23;100.00
75221;BME280;63802;53.232;6.570;2023-07-28T09:33:31;100720.63;;;20.38;100.00
75221;BME280;63802;53.232;6.570;2023-07-28T09:35:57;100718.03;;;20.47;100.00
75221;BME280;63802;53.232;6.570;2023-07-28T09:38:24;100703.97;;;20.54;100.00
75221;BME280;63802;53.232;6.570;2023-07-28T09:40:53;100725.22;;;20.77;100.00
75221;BME280;63802;53.232;6.570;2023-07-28T09:43:19;100718.16;;;21.04;100.00
75221;BME280;63802;53.232;6.570;2023-07-28T09:45:45;100711.69;;;21.11;100.00
75221;BME280;63802;53.232;6.570;2023-07-28T09:48:12;100717.13;;;21.30;100.00
75221;BME280;63802;53.232;6.570;2023-07-28T09:50:40;100707.75;;;21.24;100.00
75221;BME280;63802;53.232;6.570;2023-07-28T09:53:09;100718.78;;;21.28;100.00
75221;BME280;63802;53.232;6.570;2023-07-28T09:55:38;100720.63;;;21.18;100.00
75221;BME280;63802;53.232;6.570;2023-07-28T09:58:05;100708.41;;;21.28;100.00
75221;BME280;63802;53.232;6.570;2023-07-28T10:00:33;100719.63;;;21.54;100.00
75221;BME280;63802;53.232;6.570;2023-07-28T10:03:00;100719.13;;;21.84;100.00
75221;BME280;63802;53.232;6.570;2023-07-28T10:05:26;100711.97;;;21.99;100.00
75221;BME280;63802;53.232;6.570;2023-07-28T10:07:54;100716.25;;;21.75;100.00
75221;BME280;63802;53.232;6.570;2023-07-28T10:10:20;100716.53;;;21.93;100.00
75221;BME280;63802;53.232;6.570;2023-07-28T10:12:50;100722.91;;;22.31;100.00
75221;BME280;63802;53.232;6.570;2023-07-28T10:15:20;100724.72;;;22.97;100.00
75221;BME280;63802;53.232;6.570;2023-07-28T10:17:56;100689.66;;;22.87;100.00
75221;BME280;63802;53.232;6.570;2023-07-28T10:20:32;100711.59;;;22.98;100.00
75221;BME280;63802;53.232;6.570;2023-07-28T10:23:21;100710.53;;;22.57;100.00
75221;BME280;63802;53.232;6.570;2023-07-28T10:25:58;100696.97;;;22.34;100.00
75221;BME280;63802;53.232;6.570;2023-07-28T10:28:38;100719.34;;;22.31;100.00
75221;BME280;63802;53.232;6.570;2023-07-28T10:31:07;100728.66;;;22.37;100.00
75221;BME280;63802;53.232;6.570;2023-07-28T10:33:35;100717.53;;;21.99;100.00
75221;BME280;63802;53.232;6.570;2023-07-28T10:41:35;100716.84;;;23.73;100.00
75221;BME280;63802;53.232;6.570;2023-07-28T10:44:00;100697.69;;;24.55;100.00
75221;BME280;63802;53.232;6.570;2023-07-28T10:46:26;100705.94;;;24.19;100.00
75221;BME280;63802;53.232;6.570;2023-07-28T10:48:55;100711.25;;;23.73;100.00
75221;BME280;63802;53.232;6.570;2023-07-28T10:51:27;100712.53;;;23.16;100.00
75221;BME280;63802;53.232;6.570;2023-07-28T10:53:59;100728.94;;;23.02;100.00
75221;BME280;63802;53.232;6.570;2023-07-28T10:56:25;100725.06;;;22.87;100.00
75221;BME280;63802;53.232;6.570;2023-07-28T10:58:59;100714.00;;;22.61;100.00
75221;BME280;63802;53.232;6.570;2023-07-28T11:01:37;100732.28;;;22.97;100.00
75221;BME280;63802;53.232;6.570;2023-07-28T11:06:41;100731.19;;;23.41;100.00
75221;BME280;63802;53.232;6.570;2023-07-28T11:09:07;100734.75;;;23.29;100.00
75221;BME280;63802;53.232;6.570;2023-07-28T11:11:35;100728.03;;;23.05;100.00
75221;BME280;63802;53.232;6.570;2023-07-28T11:14:02;100740.03;;;23.14;100.00
75221;BME280;63802;53.232;6.570;2023-07-28T11:16:28;100740.31;;;22.95;100.00
75221;BME280;63802;53.232;6.570;2023-07-28T11:19:00;100733.75;;;23.36;100.00
75221;BME280;63802;53.232;6.570;2023-07-28T11:21:27;100736.94;;;23.47;100.00
75221;BME280;63802;53.232;6.570;2023-07-28T11:23:52;100725.34;;;23.48;100.00
75221;BME280;63802;53.232;6.570;2023-07-28T11:26:19;100721.41;;;23.58;100.00
75221;BME280;63802;53.232;6.570;2023-07-28T11:28:46;100727.66;;;23.71;100.00
75221;BME280;63802;53.232;6.570;2023-07-28T11:31:11;100720.69;;;23.97;100.00
75221;BME280;63802;53.232;6.570;2023-07-28T11:33:37;100725.97;;;24.75;100.00
75221;BME280;63802;53.232;6.570;2023-07-28T11:36:05;100729.94;;;25.32;100.00
75221;BME280;63802;53.232;6.570;2023-07-28T11:38:36;100722.97;;;25.55;100.00
75221;BME280;63802;53.232;6.570;2023-07-28T11:41:05;100717.13;;;25.94;100.00
75221;BME280;63802;53.232;6.570;2023-07-28T11:43:31;100697.84;;;26.15;100.00
75221;BME280;63802;53.232;6.570;2023-07-28T11:46:02;100721.53;;;26.61;100.00
75221;BME280;63802;53.232;6.570;2023-07-28T11:48:30;100716.81;;;27.00;100.00
75221;BME280;63802;53.232;6.570;2023-07-28T11:50:56;100727.94;;;26.61;100.00
75221;BME280;63802;53.232;6.570;2023-07-28T11:53:25;100716.09;;;26.34;100.00
75221;BME280;63802;53.232;6.570;2023-07-28T11:55:50;100697.88;;;26.38;100.00
75221;BME280;63802;53.232;6.570;2023-07-28T11:58:16;100693.50;;;26.46;100.00
75221;BME280;63802;53.232;6.570;2023-07-28T12:00:44;100674.66;;;26.71;100.00
75221;BME280;63802;53.232;6.570;2023-07-28T12:03:15;100702.78;;;26.52;100.00
75221;BME280;63802;53.232;6.570;2023-07-28T12:06:05;100717.88;;;26.13;100.00
75221;BME280;63802;53.232;6.570;2023-07-28T12:08:38;100701.69;;;26.26;100.00
75221;BME280;63802;53.232;6.570;2023-07-28T12:11:04;100680.41;;;26.76;100.00
75221;BME280;63802;53.232;6.570;2023-07-28T12:13:32;100693.44;;;27.03;100.00
75221;BME280;63802;53.232;6.570;2023-07-28T12:15:58;100712.47;;;27.37;100.00
75221;BME280;63802;53.232;6.570;2023-07-28T12:18:31;100713.16;;;26.28;100.00
75221;BME280;63802;53.232;6.570;2023-07-28T12:20:57;100703.19;;;26.36;100.00
75221;BME280;63802;53.232;6.570;2023-07-28T12:23:28;100700.75;;;26.20;100.00
75221;BME280;63802;53.232;6.570;2023-07-28T12:25:53;100710.44;;;26.10;100.00
75221;BME280;63802;53.232;6.570;2023-07-28T12:28:20;100732.94;;;26.25;100.00
75221;BME280;63802;53.232;6.570;2023-07-28T12:30:46;100731.47;;;26.95;100.00
75221;BME280;63802;53.232;6.570;2023-07-28T12:33:14;100733.06;;;27.34;100.00
75221;BME280;63802;53.232;6.570;2023-07-28T12:35:39;100718.59;;;27.50;100.00
75221;BME280;63802;53.232;6.570;2023-07-28T12:38:05;100724.34;;;27.70;100.00
75221;BME280;63802;53.232;6.570;2023-07-28T12:40:32;100722.34;;;26.85;100.00
75221;BME280;63802;53.232;6.570;2023-07-28T12:43:01;100730.03;;;26.76;100.00
75221;BME280;63802;53.232;6.570;2023-07-28T12:45:27;100692.53;;;26.17;100.00
75221;BME280;63802;53.232;6.570;2023-07-28T12:47:53;100713.44;;;26.39;100.00